Time;durP1;ratioP1;P1;durP2;ratioP2;P2;SDS_P1;SDS_P2;PMS_P1;PMS_P2;Temp;Humidity;BMP_temperature;BMP_pressure;BME280_temperature;BME280_humidity;BME280_pressure;Samples;Min_cycle;Max_cycle;Signal;HPM_P1;HPM_P2
2022/11/25 00:00:31;;;;;;;27.20;11.40;;;;;;;;;;5009952;28;20038;-79
2022/11/25 00:02:56;;;;;;;22.02;10.88;;;;;;;;;;5008674;28;20029;-83
2022/11/25 00:05:24;;;;;;;23.83;12.10;;;;;;;;;;5003212;28;20049;-81
2022/11/25 00:07:49;;;;;;;19.45;10.57;;;;;;;;;;5002383;28;20022;-79
2022/11/25 00:10:15;;;;;;;21.45;10.85;;;;;;;;;;4986487;28;20049;-80
2022/11/25 00:12:40;;;;;;;24.52;10.82;;;;;;;;;;5004553;28;20078;-79
2022/11/25 00:15:05;;;;;;;26.88;10.80;;;;;;;;;;4987710;28;20077;-79
2022/11/25 00:17:31;;;;;;;21.20;10.27;;;;;;;;;;4986134;28;20056;-79
2022/11/25 00:19:56;;;;;;;23.98;10.63;;;;;;;;;;5003894;28;20034;-81
2022/11/25 00:22:22;;;;;;;21.17;10.13;;;;;;;;;;5005452;28;20022;-82
2022/11/25 00:24:47;;;;;;;20.63;9.48;;;;;;;;;;5003693;28;20025;-80
2022/11/25 00:27:12;;;;;;;23.30;10.68;;;;;;;;;;4985271;28;20081;-79
2022/11/25 00:29:37;;;;;;;21.20;9.82;;;;;;;;;;4986011;28;20030;-79
2022/11/25 00:32:03;;;;;;;16.17;8.38;;;;;;;;;;5004060;28;20026;-79
2022/11/25 00:34:28;;;;;;;17.55;8.90;;;;;;;;;;5001796;28;20022;-81
2022/11/25 00:36:53;;;;;;;19.23;9.00;;;;;;;;;;4986117;28;20022;-80
2022/11/25 00:39:18;;;;;;;16.60;8.70;;;;;;;;;;5003208;28;20033;-79
2022/11/25 00:44:36;;;;;;;14.57;7.95;;;;;;;;;;5004405;28;20033;-79
2022/11/25 00:47:13;;;;;;;15.95;7.85;;;;;;;;;;4985469;28;20033;-79
2022/11/25 00:49:40;;;;;;;18.35;8.25;;;;;;;;;;5003121;28;20026;-79
2022/11/25 00:52:09;;;;;;;16.05;7.50;;;;;;;;;;5003402;28;20031;-79
2022/11/25 00:54:34;;;;;;;14.52;7.53;;;;;;;;;;5003776;28;20030;-78
2022/11/25 00:57:00;;;;;;;14.73;7.28;;;;;;;;;;5003380;28;20064;-79
2022/11/25 00:59:25;;;;;;;15.60;8.10;;;;;;;;;;4984948;28;20038;-79
2022/11/25 01:01:51;;;;;;;16.85;7.93;;;;;;;;;;5002646;28;20034;-80
2022/11/25 01:04:17;;;;;;;15.82;7.70;;;;;;;;;;4985599;28;20033;-80
2022/11/25 01:06:42;;;;;;;13.80;7.40;;;;;;;;;;5003054;28;20546;-80
2022/11/25 01:09:09;;;;;;;13.57;6.82;;;;;;;;;;5002509;28;20419;-80
2022/11/25 01:11:34;;;;;;;16.58;7.53;;;;;;;;;;5002404;28;20026;-80
2022/11/25 01:14:00;;;;;;;13.68;6.93;;;;;;;;;;4985762;28;20053;-81
2022/11/25 01:16:26;;;;;;;13.63;6.90;;;;;;;;;;5004948;28;20026;-82
2022/11/25 01:18:51;;;;;;;15.13;6.57;;;;;;;;;;4987478;28;20033;-80
2022/11/25 01:21:22;;;;;;;13.60;6.85;;;;;;;;;;4985826;28;20446;-82
2022/11/25 01:23:49;;;;;;;14.95;7.20;;;;;;;;;;4986341;28;20026;-80
2022/11/25 01:26:20;;;;;;;18.58;7.30;;;;;;;;;;5004735;28;20031;-82
2022/11/25 01:28:46;;;;;;;11.88;6.60;;;;;;;;;;5005009;28;20041;-80
2022/11/25 01:31:17;;;;;;;11.30;6.57;;;;;;;;;;4987261;28;20022;-79
2022/11/25 01:33:43;;;;;;;14.30;7.00;;;;;;;;;;5004228;28;20054;-79
2022/11/25 01:36:14;;;;;;;14.05;7.10;;;;;;;;;;4986145;28;20022;-80
2022/11/25 01:38:40;;;;;;;16.52;6.50;;;;;;;;;;4985607;28;20027;-80
2022/11/25 01:41:08;;;;;;;11.55;6.40;;;;;;;;;;5004663;28;20037;-78
2022/11/25 01:43:34;;;;;;;12.10;5.85;;;;;;;;;;5005232;28;20080;-80
2022/11/25 01:46:06;;;;;;;10.98;6.68;;;;;;;;;;5004235;28;20030;-79
2022/11/25 01:48:51;;;;;;;14.48;6.68;;;;;;;;;;5003974;28;20041;-80
2022/11/25 01:51:25;;;;;;;11.98;6.45;;;;;;;;;;5004415;28;20026;-79
2022/11/25 01:53:51;;;;;;;11.02;6.03;;;;;;;;;;5004492;28;20022;-80
2022/11/25 01:56:17;;;;;;;12.55;6.00;;;;;;;;;;4987783;28;20022;-80
2022/11/25 01:58:45;;;;;;;10.30;5.88;;;;;;;;;;4986994;28;20026;-79
2022/11/25 02:01:11;;;;;;;12.65;5.88;;;;;;;;;;4985379;28;20018;-80
2022/11/25 02:03:41;;;;;;;12.35;6.43;;;;;;;;;;5001772;28;20026;-80
2022/11/25 02:06:15;;;;;;;14.90;7.10;;;;;;;;;;5003075;28;20502;-81
2022/11/25 02:08:44;;;;;;;15.93;6.75;;;;;;;;;;5002812;28;20030;-79
2022/11/25 02:11:10;;;;;;;16.70;6.60;;;;;;;;;;4984290;28;20030;-80
2022/11/25 02:13:36;;;;;;;12.27;6.47;;;;;;;;;;5001125;28;20038;-81
2022/11/25 02:16:01;;;;;;;12.23;5.63;;;;;;;;;;4984395;28;20101;-81
2022/11/25 02:18:27;;;;;;;10.00;5.43;;;;;;;;;;5002098;28;20030;-81
2022/11/25 02:20:52;;;;;;;10.57;5.97;;;;;;;;;;4984882;28;20041;-80
2022/11/25 02:23:48;;;;;;;12.88;6.10;;;;;;;;;;5002233;28;20022;-79
2022/11/25 02:26:14;;;;;;;10.25;5.65;;;;;;;;;;5001543;28;20027;-79
2022/11/25 02:28:39;;;;;;;13.15;6.18;;;;;;;;;;4984535;28;20045;-81
2022/11/25 02:31:06;;;;;;;11.40;6.00;;;;;;;;;;5001452;28;20181;-81
2022/11/25 02:33:32;;;;;;;14.02;6.07;;;;;;;;;;5005319;28;20026;-79
2022/11/25 02:36:13;;;;;;;11.05;6.05;;;;;;;;;;5007903;28;20033;-79
2022/11/25 02:38:44;;;;;;;12.07;6.03;;;;;;;;;;5008185;28;20030;-80
2022/11/25 02:41:11;;;;;;;14.30;6.95;;;;;;;;;;5007313;28;20030;-79
2022/11/25 02:43:37;;;;;;;12.68;6.57;;;;;;;;;;5007965;28;20030;-80
2022/11/25 02:46:05;;;;;;;10.52;6.10;;;;;;;;;;5008211;28;20534;-79
2022/11/25 02:48:32;;;;;;;11.45;6.32;;;;;;;;;;5007205;28;20034;-80
2022/11/25 02:50:58;;;;;;;13.15;6.28;;;;;;;;;;4989464;28;20142;-79
2022/11/25 02:53:24;;;;;;;12.20;6.47;;;;;;;;;;4989808;28;20054;-78
2022/11/25 02:55:49;;;;;;;12.73;6.60;;;;;;;;;;4989081;28;20039;-81
2022/11/25 02:58:15;;;;;;;11.65;6.35;;;;;;;;;;5005610;28;20026;-79
2022/11/25 03:00:41;;;;;;;13.45;6.28;;;;;;;;;;5005917;28;20026;-79
2022/11/25 03:03:07;;;;;;;11.32;5.97;;;;;;;;;;5006123;28;20038;-79
2022/11/25 03:05:32;;;;;;;13.40;6.10;;;;;;;;;;4987538;28;20034;-80
2022/11/25 03:07:58;;;;;;;12.65;6.35;;;;;;;;;;5006094;28;20113;-81
2022/11/25 03:10:23;;;;;;;13.18;6.07;;;;;;;;;;4988382;28;20034;-79
2022/11/25 03:12:49;;;;;;;14.38;6.07;;;;;;;;;;5005763;28;20026;-80
2022/11/25 03:15:14;;;;;;;10.07;5.50;;;;;;;;;;5006057;28;20078;-81
2022/11/25 03:17:39;;;;;;;10.75;5.78;;;;;;;;;;5006575;28;20026;-80
2022/11/25 03:20:07;;;;;;;12.40;6.47;;;;;;;;;;5006083;28;20027;-80
2022/11/25 03:22:32;;;;;;;15.80;6.25;;;;;;;;;;4987931;28;20022;-80
2022/11/25 03:24:57;;;;;;;10.63;6.10;;;;;;;;;;5003856;28;20025;-79
2022/11/25 03:27:23;;;;;;;11.73;6.25;;;;;;;;;;5002184;28;20496;-80
2022/11/25 03:29:48;;;;;;;15.23;6.05;;;;;;;;;;5002561;28;20022;-80
2022/11/25 03:32:14;;;;;;;12.95;6.45;;;;;;;;;;5003150;28;20034;-81
2022/11/25 03:34:39;;;;;;;12.35;5.95;;;;;;;;;;4985986;28;20033;-80
2022/11/25 03:37:04;;;;;;;10.48;5.45;;;;;;;;;;5003963;28;20026;-80
2022/11/25 03:39:30;;;;;;;10.90;5.90;;;;;;;;;;5004102;28;20030;-80
2022/11/25 03:41:55;;;;;;;10.88;5.68;;;;;;;;;;5004469;28;20086;-81
2022/11/25 03:44:20;;;;;;;11.45;5.95;;;;;;;;;;4985400;28;20053;-80
2022/11/25 03:46:45;;;;;;;10.77;5.65;;;;;;;;;;5003425;28;20065;-80
2022/11/25 03:49:11;;;;;;;10.77;5.97;;;;;;;;;;4986258;28;20036;-79
2022/11/25 03:51:36;;;;;;;9.93;5.55;;;;;;;;;;5003933;28;20427;-79
2022/11/25 03:54:01;;;;;;;10.10;5.38;;;;;;;;;;5003322;28;20058;-81
2022/11/25 03:56:26;;;;;;;13.35;6.05;;;;;;;;;;5003935;28;20041;-79
2022/11/25 03:58:52;;;;;;;10.70;5.78;;;;;;;;;;5002558;28;20088;-80
2022/11/25 04:01:17;;;;;;;10.35;5.75;;;;;;;;;;5003668;28;20026;-80
2022/11/25 04:03:42;;;;;;;12.70;5.68;;;;;;;;;;5004320;28;20081;-80
2022/11/25 04:06:08;;;;;;;9.32;5.28;;;;;;;;;;5005136;28;20038;-80
2022/11/25 04:08:33;;;;;;;11.82;5.63;;;;;;;;;;5006155;28;20061;-80
2022/11/25 04:10:58;;;;;;;10.45;5.53;;;;;;;;;;5006138;28;20022;-80
2022/11/25 04:13:24;;;;;;;11.35;6.50;;;;;;;;;;5005034;28;20073;-80
2022/11/25 04:15:49;;;;;;;11.65;5.60;;;;;;;;;;5006667;28;20026;-81
2022/11/25 04:18:16;;;;;;;12.15;5.85;;;;;;;;;;5006465;28;20153;-80
2022/11/25 04:20:42;;;;;;;10.38;5.70;;;;;;;;;;5005692;28;20034;-82
2022/11/25 04:23:09;;;;;;;10.13;5.70;;;;;;;;;;5006529;28;20022;-80
2022/11/25 04:25:35;;;;;;;11.38;5.60;;;;;;;;;;5005361;28;20029;-80
2022/11/25 04:28:01;;;;;;;12.18;6.15;;;;;;;;;;5004516;28;20031;-81
2022/11/25 04:30:26;;;;;;;9.57;5.50;;;;;;;;;;4987878;28;20027;-79
2022/11/25 04:32:52;;;;;;;12.45;5.82;;;;;;;;;;4987753;28;20030;-80
2022/11/25 04:35:17;;;;;;;12.52;5.53;;;;;;;;;;5004503;28;20034;-80
2022/11/25 04:37:42;;;;;;;10.13;5.38;;;;;;;;;;5003068;28;20049;-80
2022/11/25 04:40:08;;;;;;;10.02;5.38;;;;;;;;;;5003119;28;20030;-78
2022/11/25 04:42:35;;;;;;;8.50;5.35;;;;;;;;;;4986184;28;20030;-79
2022/11/25 04:45:05;;;;;;;10.88;5.35;;;;;;;;;;5003676;28;20026;-81
2022/11/25 04:47:31;;;;;;;10.70;5.43;;;;;;;;;;4984037;28;20027;-81
2022/11/25 04:49:56;;;;;;;9.95;5.85;;;;;;;;;;4984544;28;20035;-81
2022/11/25 04:52:21;;;;;;;11.32;5.60;;;;;;;;;;5001801;28;20121;-78
2022/11/25 04:54:47;;;;;;;11.48;5.25;;;;;;;;;;5000990;28;20036;-79
2022/11/25 04:57:13;;;;;;;10.70;5.47;;;;;;;;;;5000989;28;20387;-81
2022/11/25 04:59:40;;;;;;;9.57;5.30;;;;;;;;;;4985302;28;20030;-80
2022/11/25 05:02:26;;;;;;;9.82;5.28;;;;;;;;;;5001765;28;20026;-80
2022/11/25 05:04:54;;;;;;;8.55;5.15;;;;;;;;;;4982996;28;20037;-81
2022/11/25 05:07:20;;;;;;;9.63;4.50;;;;;;;;;;5001972;28;20030;-80
2022/11/25 05:09:46;;;;;;;10.35;5.00;;;;;;;;;;4985051;28;20056;-79
2022/11/25 05:12:21;;;;;;;11.60;4.70;;;;;;;;;;5002808;28;20484;-80
2022/11/25 05:14:47;;;;;;;8.60;5.07;;;;;;;;;;5002259;28;20041;-80
2022/11/25 05:17:16;;;;;;;9.25;5.05;;;;;;;;;;5003695;28;20018;-81
2022/11/25 05:19:41;;;;;;;8.60;4.93;;;;;;;;;;4986543;28;20133;-81
2022/11/25 05:22:14;;;;;;;10.63;5.22;;;;;;;;;;5003862;28;20030;-81
2022/11/25 05:24:40;;;;;;;11.10;4.90;;;;;;;;;;4986381;28;20112;-80
2022/11/25 05:27:05;;;;;;;10.07;5.13;;;;;;;;;;5003139;28;20554;-82
2022/11/25 05:29:30;;;;;;;10.00;5.55;;;;;;;;;;5003185;28;20065;-80
2022/11/25 05:31:56;;;;;;;7.70;4.78;;;;;;;;;;5002238;28;20030;-81
2022/11/25 05:34:21;;;;;;;9.52;4.90;;;;;;;;;;5003518;28;20049;-81
2022/11/25 05:36:46;;;;;;;10.48;5.35;;;;;;;;;;4985076;28;20025;-82
2022/11/25 05:39:12;;;;;;;13.50;5.95;;;;;;;;;;4984560;28;20164;-80
2022/11/25 05:41:37;;;;;;;12.15;5.80;;;;;;;;;;5001223;28;20027;-82
2022/11/25 05:44:04;;;;;;;11.07;5.47;;;;;;;;;;4982852;28;20058;-80
2022/11/25 05:46:29;;;;;;;12.82;5.60;;;;;;;;;;4984295;28;20034;-79
2022/11/25 05:48:55;;;;;;;11.50;6.18;;;;;;;;;;5002199;28;20065;-81
2022/11/25 05:51:21;;;;;;;13.48;6.68;;;;;;;;;;4984864;28;20030;-80
2022/11/25 05:53:46;;;;;;;12.30;5.40;;;;;;;;;;5002717;28;20030;-80
2022/11/25 05:56:11;;;;;;;10.63;5.72;;;;;;;;;;5003604;28;20122;-80
2022/11/25 05:58:37;;;;;;;10.50;6.25;;;;;;;;;;5004712;28;20080;-81
2022/11/25 06:01:07;;;;;;;8.90;5.32;;;;;;;;;;5004959;28;20117;-80
2022/11/25 06:03:32;;;;;;;11.10;6.18;;;;;;;;;;5004514;28;20045;-81
2022/11/25 06:05:58;;;;;;;12.52;5.55;;;;;;;;;;5005300;28;20387;-81
2022/11/25 06:08:24;;;;;;;11.82;6.47;;;;;;;;;;5005265;28;20026;-80
2022/11/25 06:10:50;;;;;;;9.02;5.40;;;;;;;;;;5003633;28;20034;-80
2022/11/25 06:13:15;;;;;;;13.82;6.10;;;;;;;;;;4985920;28;20549;-80
2022/11/25 06:15:42;;;;;;;9.20;5.18;;;;;;;;;;4985304;28;20046;-81
2022/11/25 06:18:09;;;;;;;11.50;6.32;;;;;;;;;;5004561;28;20018;-81
2022/11/25 06:20:35;;;;;;;12.00;5.95;;;;;;;;;;5004444;28;20491;-82
2022/11/25 06:23:00;;;;;;;11.07;5.45;;;;;;;;;;5005280;28;20034;-81
2022/11/25 06:25:25;;;;;;;13.50;6.25;;;;;;;;;;5002198;28;20026;-80
2022/11/25 06:27:51;;;;;;;12.23;6.15;;;;;;;;;;5001869;28;20026;-79
2022/11/25 06:30:17;;;;;;;13.32;5.63;;;;;;;;;;5000803;28;20069;-80
2022/11/25 06:32:42;;;;;;;13.45;6.78;;;;;;;;;;5001360;28;20022;-80
2022/11/25 06:35:08;;;;;;;10.25;5.32;;;;;;;;;;5003056;28;20030;-80
2022/11/25 06:37:33;;;;;;;11.48;5.78;;;;;;;;;;5003774;28;20038;-80
2022/11/25 06:39:59;;;;;;;11.52;6.25;;;;;;;;;;4986116;28;20447;-81
2022/11/25 06:42:24;;;;;;;13.80;6.07;;;;;;;;;;4985879;28;20026;-81
2022/11/25 06:44:49;;;;;;;13.68;6.13;;;;;;;;;;5002323;28;20022;-80
2022/11/25 06:47:15;;;;;;;12.60;6.38;;;;;;;;;;5001063;28;20034;-81
2022/11/25 06:49:40;;;;;;;10.82;5.93;;;;;;;;;;5000700;28;20514;-82
2022/11/25 06:52:06;;;;;;;13.27;6.43;;;;;;;;;;4982683;28;20085;-81
2022/11/25 06:54:32;;;;;;;14.85;6.97;;;;;;;;;;5000644;28;20041;-81
2022/11/25 06:56:57;;;;;;;11.82;6.47;;;;;;;;;;5000637;28;20022;-81
2022/11/25 06:59:22;;;;;;;16.65;6.93;;;;;;;;;;4983921;28;20027;-81
2022/11/25 07:01:48;;;;;;;13.05;7.22;;;;;;;;;;5001072;28;20030;-81
2022/11/25 07:04:13;;;;;;;11.52;6.70;;;;;;;;;;5000601;28;20022;-81
2022/11/25 07:06:38;;;;;;;14.73;6.70;;;;;;;;;;4983552;28;20026;-80
2022/11/25 07:09:04;;;;;;;13.25;7.28;;;;;;;;;;5001645;28;20440;-81
2022/11/25 07:11:36;;;;;;;14.55;6.85;;;;;;;;;;4983931;28;20022;-81
2022/11/25 07:14:04;;;;;;;14.02;6.88;;;;;;;;;;4985389;28;20133;-81
2022/11/25 07:16:30;;;;;;;13.20;6.55;;;;;;;;;;5002569;28;20033;-80
2022/11/25 07:19:00;;;;;;;14.40;7.55;;;;;;;;;;5004951;28;20081;-80
2022/11/25 07:21:26;;;;;;;12.98;6.75;;;;;;;;;;5007047;28;20026;-80
2022/11/25 07:23:52;;;;;;;11.02;6.13;;;;;;;;;;5007679;28;20041;-80
2022/11/25 07:26:26;;;;;;;14.50;7.00;;;;;;;;;;5007589;28;20105;-81
2022/11/25 07:28:53;;;;;;;13.70;6.60;;;;;;;;;;4989128;28;20029;-79
2022/11/25 07:31:20;;;;;;;13.73;6.75;;;;;;;;;;5008475;28;20503;-80
2022/11/25 07:33:46;;;;;;;12.25;6.80;;;;;;;;;;4989506;28;20037;-81
2022/11/25 07:36:13;;;;;;;11.70;6.30;;;;;;;;;;5009074;28;20034;-80
2022/11/25 07:38:39;;;;;;;12.63;6.88;;;;;;;;;;5008940;28;20079;-79
2022/11/25 07:41:06;;;;;;;12.50;6.80;;;;;;;;;;5007755;28;20049;-80
2022/11/25 07:43:32;;;;;;;14.02;7.18;;;;;;;;;;5006194;28;20395;-79
2022/11/25 07:46:08;;;;;;;13.90;6.78;;;;;;;;;;4989371;28;20121;-81
2022/11/25 07:48:33;;;;;;;13.82;6.45;;;;;;;;;;4988420;28;20026;-79
2022/11/25 07:50:58;;;;;;;15.43;7.43;;;;;;;;;;5006838;28;20050;-80
2022/11/25 07:53:24;;;;;;;14.10;6.95;;;;;;;;;;5006690;28;20023;-80
2022/11/25 07:55:49;;;;;;;13.90;6.65;;;;;;;;;;5006290;28;20022;-80
2022/11/25 07:58:14;;;;;;;12.10;6.68;;;;;;;;;;5006774;28;20077;-80
2022/11/25 08:00:39;;;;;;;13.07;6.55;;;;;;;;;;5007402;28;20026;-80
2022/11/25 08:03:05;;;;;;;14.40;7.03;;;;;;;;;;4989279;28;20041;-80
2022/11/25 08:05:32;;;;;;;14.40;7.40;;;;;;;;;;5006787;28;20022;-80
2022/11/25 08:07:57;;;;;;;13.93;7.28;;;;;;;;;;5006710;28;20522;-80
2022/11/25 08:10:22;;;;;;;14.48;7.40;;;;;;;;;;5006152;28;20065;-80
2022/11/25 08:12:48;;;;;;;14.80;7.20;;;;;;;;;;5005998;28;20468;-81
2022/11/25 08:15:13;;;;;;;15.80;7.43;;;;;;;;;;4987261;28;20089;-81
2022/11/25 08:17:38;;;;;;;16.73;7.88;;;;;;;;;;4989638;28;20027;-79
2022/11/25 08:20:04;;;;;;;16.63;7.30;;;;;;;;;;5008441;28;20030;-80
2022/11/25 08:22:29;;;;;;;14.90;7.95;;;;;;;;;;5009163;28;20060;-80
2022/11/25 08:24:55;;;;;;;15.43;7.75;;;;;;;;;;4990461;28;20054;-80
2022/11/25 08:27:20;;;;;;;14.38;7.63;;;;;;;;;;5008390;28;20030;-81
2022/11/25 08:29:46;;;;;;;18.52;8.38;;;;;;;;;;5007750;28;20030;-80
2022/11/25 08:32:11;;;;;;;13.48;7.40;;;;;;;;;;4989644;28;20034;-80
2022/11/25 08:34:36;;;;;;;15.13;7.30;;;;;;;;;;5008932;28;20034;-80
2022/11/25 08:37:01;;;;;;;19.50;8.13;;;;;;;;;;5010255;28;20107;-80
2022/11/25 08:39:27;;;;;;;14.55;7.93;;;;;;;;;;5008008;28;20034;-80
2022/11/25 08:41:52;;;;;;;16.67;7.70;;;;;;;;;;5008134;28;20479;-79
2022/11/25 08:44:18;;;;;;;16.85;7.80;;;;;;;;;;4990427;28;20033;-80
2022/11/25 08:46:43;;;;;;;13.75;7.10;;;;;;;;;;5006616;28;20050;-81
2022/11/25 08:49:11;;;;;;;21.80;7.53;;;;;;;;;;4985423;28;20034;-81
2022/11/25 08:51:37;;;;;;;13.75;7.22;;;;;;;;;;5003224;28;20034;-81
2022/11/25 08:54:03;;;;;;;18.48;8.60;;;;;;;;;;5002743;28;20081;-81
2022/11/25 08:56:29;;;;;;;15.55;7.47;;;;;;;;;;4986213;28;20027;-80
2022/11/25 08:58:54;;;;;;;13.55;7.30;;;;;;;;;;5004618;28;20036;-81
2022/11/25 09:01:21;;;;;;;13.50;7.10;;;;;;;;;;4987002;28;20431;-80
2022/11/25 09:03:49;;;;;;;12.95;7.10;;;;;;;;;;5005249;28;20045;-80
2022/11/25 09:06:15;;;;;;;16.77;7.68;;;;;;;;;;4987456;28;20026;-80
2022/11/25 09:08:41;;;;;;;14.90;7.18;;;;;;;;;;5005217;28;20041;-79
2022/11/25 09:11:07;;;;;;;12.82;6.95;;;;;;;;;;5004846;28;20403;-81
2022/11/25 09:13:33;;;;;;;15.90;8.07;;;;;;;;;;4987731;28;20033;-82
2022/11/25 09:16:00;;;;;;;16.33;7.13;;;;;;;;;;5012285;28;20022;-80
2022/11/25 09:18:28;;;;;;;16.23;7.50;;;;;;;;;;5182684;23;20068;-80
2022/11/25 09:20:57;;;;;;;16.92;8.10;;;;;;;;;;5031373;28;20037;-79
2022/11/25 09:23:23;;;;;;;16.17;7.95;;;;;;;;;;5012876;28;20088;-80
2022/11/25 09:25:56;;;;;;;16.42;7.35;;;;;;;;;;5027118;28;20021;-79
2022/11/25 09:28:25;;;;;;;14.18;7.57;;;;;;;;;;5024136;28;20030;-81
2022/11/25 09:30:52;;;;;;;18.40;7.18;;;;;;;;;;5008355;28;20418;-80
2022/11/25 09:33:18;;;;;;;13.27;7.53;;;;;;;;;;5009516;28;20021;-80
2022/11/25 09:35:44;;;;;;;12.60;6.80;;;;;;;;;;5028706;28;20034;-79
2022/11/25 09:38:10;;;;;;;13.13;7.00;;;;;;;;;;5029299;28;20030;-78
2022/11/25 09:40:46;;;;;;;14.27;7.50;;;;;;;;;;5029534;28;20037;-79
2022/11/25 09:46:42;;;;;;;14.25;6.80;;;;;;;;;;5030912;28;20116;-79
2022/11/25 09:49:13;;;;;;;11.68;6.70;;;;;;;;;;5011859;28;20029;-79
2022/11/25 09:52:17;;;;;;;15.50;7.65;;;;;;;;;;5028140;28;20029;-80
2022/11/25 09:55:02;;;;;;;14.15;6.97;;;;;;;;;;5018203;28;20459;-80
2022/11/25 09:57:49;;;;;;;12.15;6.55;;;;;;;;;;5017148;28;20018;-81
2022/11/25 10:00:17;;;;;;;12.48;6.75;;;;;;;;;;5000049;28;20029;-82
2022/11/25 10:02:52;;;;;;;12.30;6.75;;;;;;;;;;5017439;28;20026;-81
2022/11/25 10:05:27;;;;;;;14.65;7.35;;;;;;;;;;4999818;28;20410;-82
2022/11/25 10:07:58;;;;;;;11.93;6.65;;;;;;;;;;5016624;28;20083;-82
2022/11/25 10:10:39;;;;;;;14.80;7.05;;;;;;;;;;5017425;28;20456;-82
2022/11/25 10:13:15;;;;;;;19.35;7.32;;;;;;;;;;5020242;28;20463;-80
2022/11/25 10:15:45;;;;;;;15.77;7.07;;;;;;;;;;5019447;28;20049;-81
2022/11/25 10:18:33;;;;;;;11.25;6.63;;;;;;;;;;5019759;28;20026;-80
2022/11/25 10:20:58;;;;;;;12.63;6.30;;;;;;;;;;5007775;28;20056;-80
2022/11/25 10:23:30;;;;;;;15.50;6.07;;;;;;;;;;5007754;28;20030;-81
2022/11/25 10:26:00;;;;;;;14.05;6.55;;;;;;;;;;5025572;28;20026;-80
2022/11/25 10:28:33;;;;;;;11.27;5.82;;;;;;;;;;5023995;28;20084;-80
2022/11/25 10:31:24;;;;;;;11.35;6.15;;;;;;;;;;5025955;28;20105;-81
2022/11/25 10:33:52;;;;;;;14.15;5.97;;;;;;;;;;5024015;28;20021;-82
2022/11/25 10:36:22;;;;;;;13.52;6.13;;;;;;;;;;5023870;28;20017;-82
2022/11/25 10:38:55;;;;;;;8.48;5.43;;;;;;;;;;5023899;28;20489;-79
2022/11/25 10:41:24;;;;;;;12.00;6.03;;;;;;;;;;5006382;28;20022;-82
2022/11/25 10:43:50;;;;;;;9.23;5.20;;;;;;;;;;5023750;28;20030;-80
2022/11/25 10:46:25;;;;;;;15.45;5.78;;;;;;;;;;5022139;28;20029;-81
2022/11/25 10:49:04;;;;;;;14.27;5.78;;;;;;;;;;5022987;28;20463;-79
2022/11/25 10:52:03;;;;;;;12.35;5.85;;;;;;;;;;5020144;28;20026;-82
2022/11/25 10:54:28;;;;;;;9.88;4.88;;;;;;;;;;5024660;28;20029;-83
2022/11/25 10:57:02;;;;;;;9.63;5.38;;;;;;;;;;5024600;28;20491;-81
2022/11/25 10:59:34;;;;;;;;;;;;;;;;;;5023168;28;20018;-81
2022/11/25 11:02:16;;;;;;;7.60;4.40;;;;;;;;;;5022217;28;19909;-79
2022/11/25 11:05:07;;;;;;;9.30;4.80;;;;;;;;;;5005032;28;20053;-79
2022/11/25 11:07:38;;;;;;;10.20;4.55;;;;;;;;;;5022729;28;20132;-82
2022/11/25 11:10:25;;;;;;;10.18;5.70;;;;;;;;;;5022124;28;20065;-80
2022/11/25 11:12:57;;;;;;;11.35;5.30;;;;;;;;;;5022657;28;20037;-84
2022/11/25 11:17:48;;;;;;;10.35;5.75;;;;;;;;;;5122244;27;20403;-85
2022/11/25 11:20:29;;;;;;;10.15;5.22;;;;;;;;;;5121100;28;20036;-85
2022/11/25 11:23:08;;;;;;;11.75;5.45;;;;;;;;;;5117352;28;20123;-80
2022/11/25 11:25:36;;;;;;;12.80;5.97;;;;;;;;;;5119733;28;20027;-80
2022/11/25 11:28:02;;;;;;;10.77;5.90;;;;;;;;;;5122776;28;20024;-79
2022/11/25 11:30:30;;;;;;;10.90;5.55;;;;;;;;;;5121755;28;20020;-79
2022/11/25 11:32:58;;;;;;;13.48;6.00;;;;;;;;;;5122279;28;20089;-78
2022/11/25 11:35:37;;;;;;;10.25;5.35;;;;;;;;;;5120375;28;20544;-85
2022/11/25 11:38:28;;;;;;;10.38;5.32;;;;;;;;;;5117884;28;20089;-78
2022/11/25 11:41:13;;;;;;;11.35;5.57;;;;;;;;;;5113689;28;20028;-80
2022/11/25 11:44:07;;;;;;;15.15;5.43;;;;;;;;;;5118842;28;20068;-80
2022/11/25 11:46:49;;;;;;;12.70;4.97;;;;;;;;;;5119033;28;20092;-80
2022/11/25 11:49:34;;;;;;;11.10;5.50;;;;;;;;;;5120340;28;20043;-81
2022/11/25 11:52:21;;;;;;;11.88;4.88;;;;;;;;;;5118621;28;20024;-79
2022/11/25 11:54:55;;;;;;;8.40;4.40;;;;;;;;;;5118658;28;20024;-79
2022/11/25 11:57:20;;;;;;;;;;;;;;;;;;5120119;28;20047;-79
2022/11/25 11:59:49;;;;;;;7.88;4.45;;;;;;;;;;5119937;28;20341;-78
2022/11/25 12:02:34;;;;;;;10.60;4.75;;;;;;;;;;5120457;28;20099;-80
2022/11/25 12:05:09;;;;;;;13.20;4.25;;;;;;;;;;5121750;28;20085;-81
2022/11/25 12:07:50;;;;;;;10.10;4.28;;;;;;;;;;5121929;28;20011;-81
2022/11/25 12:10:21;;;;;;;10.30;4.30;;;;;;;;;;5121112;28;20028;-80
2022/11/25 12:13:11;;;;;;;10.38;4.82;;;;;;;;;;5121149;28;20028;-80
2022/11/25 12:15:54;;;;;;;14.13;4.75;;;;;;;;;;5119849;28;20091;-80
2022/11/25 12:18:32;;;;;;;10.77;5.32;;;;;;;;;;5120723;28;20027;-79
2022/11/25 12:21:06;;;;;;;12.07;5.20;;;;;;;;;;5120980;28;20035;-81
2022/11/25 12:23:57;;;;;;;13.13;5.22;;;;;;;;;;5119462;28;20087;-80
2022/11/25 12:26:29;;;;;;;9.50;4.88;;;;;;;;;;5120902;28;20023;-81
2022/11/25 12:29:00;;;;;;;12.38;5.07;;;;;;;;;;5107542;28;20401;-81
2022/11/25 12:31:30;;;;;;;11.48;4.90;;;;;;;;;;5106260;28;20098;-81
2022/11/25 12:34:10;;;;;;;9.63;4.75;;;;;;;;;;5106365;28;20024;-80
2022/11/25 12:36:39;;;;;;;9.60;4.93;;;;;;;;;;5106048;28;20024;-79
2022/11/25 12:39:43;;;;;;;16.60;5.10;;;;;;;;;;5107030;28;20055;-80
2022/11/25 12:42:21;;;;;;;11.05;5.50;;;;;;;;;;5105636;28;20515;-80
2022/11/25 12:45:02;;;;;;;8.95;5.38;;;;;;;;;;5107082;28;20084;-82
2022/11/25 12:47:28;;;;;;;10.43;4.63;;;;;;;;;;5107373;28;20016;-80
2022/11/25 12:49:54;;;;;;;9.45;4.88;;;;;;;;;;5106519;28;20039;-80
2022/11/25 12:52:48;;;;;;;12.65;5.65;;;;;;;;;;5106075;28;20067;-80
2022/11/25 12:55:20;;;;;;;9.77;5.60;;;;;;;;;;5106051;28;20032;-80
2022/11/25 12:58:04;;;;;;;12.80;5.32;;;;;;;;;;5104715;28;20024;-80
2022/11/25 13:00:55;;;;;;;10.60;4.82;;;;;;;;;;5107024;28;20035;-80
2022/11/25 13:03:52;;;;;;;10.70;5.13;;;;;;;;;;5107012;28;20491;-80
2022/11/25 13:06:57;;;;;;;7.95;5.03;;;;;;;;;;5106601;28;20027;-79
2022/11/25 13:09:38;;;;;;;10.73;4.80;;;;;;;;;;5106545;28;20024;-80
2022/11/25 13:12:22;;;;;;;8.07;4.28;;;;;;;;;;5107163;28;20024;-81
2022/11/25 13:15:06;;;;;;;9.52;3.85;;;;;;;;;;5106362;28;20020;-80
2022/11/25 13:17:38;;;;;;;9.93;3.45;;;;;;;;;;5106186;28;20024;-79
2022/11/25 13:20:22;;;;;;;11.88;4.55;;;;;;;;;;5106686;28;20055;-80
2022/11/25 13:23:09;;;;;;;9.75;4.47;;;;;;;;;;5106028;28;20048;-80
2022/11/25 13:25:46;;;;;;;9.10;4.57;;;;;;;;;;5105624;28;20088;-80
2022/11/25 13:28:33;;;;;;;8.45;4.68;;;;;;;;;;5105484;28;20020;-79
2022/11/25 13:31:20;;;;;;;7.65;4.07;;;;;;;;;;5105581;28;20020;-80
2022/11/25 13:33:46;;;;;;;9.13;4.97;;;;;;;;;;5104615;28;20374;-80
2022/11/25 13:36:23;;;;;;;9.23;4.47;;;;;;;;;;5104814;28;20031;-80
2022/11/25 13:38:48;;;;;;;9.77;4.20;;;;;;;;;;5104449;28;20059;-80
2022/11/25 13:41:20;;;;;;;11.07;5.45;;;;;;;;;;5102699;28;20069;-80
2022/11/25 13:43:51;;;;;;;8.45;4.38;;;;;;;;;;5105133;28;20380;-79
2022/11/25 13:46:43;;;;;;;9.20;4.15;;;;;;;;;;5104591;28;20024;-79
2022/11/25 13:49:37;;;;;;;10.35;5.15;;;;;;;;;;5104037;28;20024;-80
2022/11/25 13:52:14;;;;;;;10.23;4.63;;;;;;;;;;5103840;28;20020;-80
2022/11/25 13:54:48;;;;;;;12.57;4.85;;;;;;;;;;5101653;28;20059;-80
2022/11/25 13:57:22;;;;;;;14.07;5.50;;;;;;;;;;5103575;28;20024;-81
2022/11/25 13:59:49;;;;;;;8.23;4.70;;;;;;;;;;5103697;28;20032;-79
2022/11/25 14:02:31;;;;;;;10.88;5.38;;;;;;;;;;5102290;28;20065;-80
2022/11/25 14:05:30;;;;;;;10.07;5.03;;;;;;;;;;5100692;28;20380;-80
2022/11/25 14:08:20;;;;;;;10.07;5.15;;;;;;;;;;5100240;28;20020;-80
2022/11/25 14:10:58;;;;;;;13.45;5.07;;;;;;;;;;5101500;28;20100;-80
2022/11/25 14:13:43;;;;;;;11.48;5.70;;;;;;;;;;5099686;28;20122;-80
2022/11/25 14:16:45;;;;;;;14.23;6.30;;;;;;;;;;5102715;28;20039;-79
2022/11/25 14:19:38;;;;;;;10.70;5.68;;;;;;;;;;5101671;28;20550;-80
2022/11/25 14:22:23;;;;;;;13.32;5.43;;;;;;;;;;5099803;28;20484;-80
2022/11/25 14:24:53;;;;;;;11.60;5.65;;;;;;;;;;5099722;28;20092;-79
2022/11/25 14:27:26;;;;;;;11.40;5.78;;;;;;;;;;5100782;28;20047;-80
2022/11/25 14:29:59;;;;;;;14.27;6.00;;;;;;;;;;5101259;28;20024;-80
2022/11/25 14:32:38;;;;;;;16.30;5.47;;;;;;;;;;5100822;28;20103;-79
2022/11/25 14:35:10;;;;;;;15.10;6.30;;;;;;;;;;5101249;28;20028;-79
2022/11/25 14:37:40;;;;;;;12.82;6.60;;;;;;;;;;5101326;28;20026;-79
2022/11/25 14:40:16;;;;;;;14.38;6.72;;;;;;;;;;5100247;28;20039;-80
2022/11/25 14:42:45;;;;;;;13.48;6.60;;;;;;;;;;5101346;28;20111;-81
2022/11/25 14:45:28;;;;;;;12.48;5.80;;;;;;;;;;5098979;28;20183;-79
2022/11/25 14:47:55;;;;;;;14.25;6.70;;;;;;;;;;5099572;28;20020;-80
2022/11/25 14:50:21;;;;;;;13.20;6.63;;;;;;;;;;5099997;28;20087;-80
2022/11/25 14:52:47;;;;;;;17.90;7.22;;;;;;;;;;5102481;28;20030;-80
2022/11/25 14:55:23;;;;;;;18.30;7.40;;;;;;;;;;5100051;28;20448;-79
2022/11/25 14:57:48;;;;;;;14.23;7.45;;;;;;;;;;5099582;28;20084;-78